sensor_id;sensor_type;location;lat;lon;timestamp;temperature;humidity
19952;DHT22;10137;49.406;19.484;2023-02-18T00:01:18;5.80;99.90
19952;DHT22;10137;49.406;19.484;2023-02-18T00:03:47;5.80;99.90
19952;DHT22;10137;49.406;19.484;2023-02-18T00:06:17;5.80;99.90
19952;DHT22;10137;49.406;19.484;2023-02-18T00:08:47;5.80;99.90
19952;DHT22;10137;49.406;19.484;2023-02-18T00:11:16;5.90;99.90
19952;DHT22;10137;49.406;19.484;2023-02-18T00:13:49;5.80;99.90
19952;DHT22;10137;49.406;19.484;2023-02-18T00:16:17;5.80;99.90
19952;DHT22;10137;49.406;19.484;2023-02-18T00:18:48;5.80;99.90
19952;DHT22;10137;49.406;19.484;2023-02-18T00:21:16;5.80;99.90
19952;DHT22;10137;49.406;19.484;2023-02-18T00:23:43;5.70;99.90
19952;DHT22;10137;49.406;19.484;2023-02-18T00:26:15;5.80;99.90
19952;DHT22;10137;49.406;19.484;2023-02-18T00:28:44;5.80;99.90
19952;DHT22;10137;49.406;19.484;2023-02-18T00:31:17;5.80;99.90
19952;DHT22;10137;49.406;19.484;2023-02-18T00:33:45;5.90;99.90
19952;DHT22;10137;49.406;19.484;2023-02-18T00:36:15;5.90;99.90
19952;DHT22;10137;49.406;19.484;2023-02-18T00:38:43;5.90;99.90
19952;DHT22;10137;49.406;19.484;2023-02-18T00:41:13;5.90;99.90
19952;DHT22;10137;49.406;19.484;2023-02-18T00:43:42;5.90;99.90
19952;DHT22;10137;49.406;19.484;2023-02-18T00:46:10;5.90;99.90
19952;DHT22;10137;49.406;19.484;2023-02-18T00:48:39;5.90;99.90
19952;DHT22;10137;49.406;19.484;2023-02-18T00:51:06;5.90;99.90
19952;DHT22;10137;49.406;19.484;2023-02-18T00:53:35;5.90;99.90
19952;DHT22;10137;49.406;19.484;2023-02-18T00:56:05;5.90;99.90
19952;DHT22;10137;49.406;19.484;2023-02-18T00:58:35;5.90;99.90
19952;DHT22;10137;49.406;19.484;2023-02-18T01:01:05;5.90;99.90
19952;DHT22;10137;49.406;19.484;2023-02-18T01:03:34;5.90;99.90
19952;DHT22;10137;49.406;19.484;2023-02-18T01:06:02;5.90;99.90
19952;DHT22;10137;49.406;19.484;2023-02-18T01:08:30;5.90;99.90
19952;DHT22;10137;49.406;19.484;2023-02-18T01:10:58;5.90;99.90
19952;DHT22;10137;49.406;19.484;2023-02-18T01:13:27;6.00;99.90
19952;DHT22;10137;49.406;19.484;2023-02-18T01:15:56;6.00;99.90
19952;DHT22;10137;49.406;19.484;2023-02-18T01:18:25;6.10;99.90
19952;DHT22;10137;49.406;19.484;2023-02-18T01:20:54;6.10;99.90
19952;DHT22;10137;49.406;19.484;2023-02-18T01:23:22;6.10;99.90
19952;DHT22;10137;49.406;19.484;2023-02-18T01:25:51;6.10;99.90
19952;DHT22;10137;49.406;19.484;2023-02-18T01:28:19;6.10;99.90
19952;DHT22;10137;49.406;19.484;2023-02-18T01:30:51;6.20;99.90
19952;DHT22;10137;49.406;19.484;2023-02-18T01:33:21;6.10;99.90
19952;DHT22;10137;49.406;19.484;2023-02-18T01:35:48;6.10;99.90
19952;DHT22;10137;49.406;19.484;2023-02-18T01:38:16;6.20;99.90
19952;DHT22;10137;49.406;19.484;2023-02-18T01:40:47;6.20;99.90
19952;DHT22;10137;49.406;19.484;2023-02-18T01:43:18;6.20;99.90
19952;DHT22;10137;49.406;19.484;2023-02-18T01:45:57;6.20;99.90
19952;DHT22;10137;49.406;19.484;2023-02-18T01:48:29;6.20;99.90
19952;DHT22;10137;49.406;19.484;2023-02-18T01:51:00;6.20;99.90
19952;DHT22;10137;49.406;19.484;2023-02-18T01:53:34;6.30;99.90
19952;DHT22;10137;49.406;19.484;2023-02-18T01:56:06;6.30;99.90
19952;DHT22;10137;49.406;19.484;2023-02-18T01:58:36;6.30;99.90
19952;DHT22;10137;49.406;19.484;2023-02-18T02:01:05;6.30;99.90
19952;DHT22;10137;49.406;19.484;2023-02-18T02:03:34;6.40;99.90
19952;DHT22;10137;49.406;19.484;2023-02-18T02:06:01;6.40;99.90
19952;DHT22;10137;49.406;19.484;2023-02-18T02:08:33;6.40;99.90
19952;DHT22;10137;49.406;19.484;2023-02-18T02:11:08;6.50;99.90
19952;DHT22;10137;49.406;19.484;2023-02-18T02:13:49;6.50;99.90
19952;DHT22;10137;49.406;19.484;2023-02-18T02:16:26;6.50;99.90
19952;DHT22;10137;49.406;19.484;2023-02-18T02:19:07;6.60;99.90
19952;DHT22;10137;49.406;19.484;2023-02-18T02:22:01;6.60;99.90
19952;DHT22;10137;49.406;19.484;2023-02-18T02:28:05;6.60;99.90
19952;DHT22;10137;49.406;19.484;2023-02-18T02:31:02;6.60;99.90
19952;DHT22;10137;49.406;19.484;2023-02-18T02:33:55;6.60;99.90
19952;DHT22;10137;49.406;19.484;2023-02-18T02:36:36;6.50;99.90
19952;DHT22;10137;49.406;19.484;2023-02-18T02:39:10;6.60;99.90
19952;DHT22;10137;49.406;19.484;2023-02-18T02:41:48;6.60;99.90
19952;DHT22;10137;49.406;19.484;2023-02-18T02:44:20;6.60;99.90
19952;DHT22;10137;49.406;19.484;2023-02-18T02:46:51;6.70;99.90
19952;DHT22;10137;49.406;19.484;2023-02-18T02:49:32;6.60;99.90
19952;DHT22;10137;49.406;19.484;2023-02-18T02:52:06;6.60;99.90
19952;DHT22;10137;49.406;19.484;2023-02-18T02:54:35;6.60;99.90
19952;DHT22;10137;49.406;19.484;2023-02-18T02:57:42;6.60;99.90
19952;DHT22;10137;49.406;19.484;2023-02-18T03:00:13;6.60;99.90
19952;DHT22;10137;49.406;19.484;2023-02-18T03:03:03;6.60;99.90
19952;DHT22;10137;49.406;19.484;2023-02-18T03:05:42;6.60;99.90
19952;DHT22;10137;49.406;19.484;2023-02-18T03:08:29;6.70;99.90
19952;DHT22;10137;49.406;19.484;2023-02-18T03:11:03;6.70;99.90
19952;DHT22;10137;49.406;19.484;2023-02-18T03:13:52;6.70;99.90
19952;DHT22;10137;49.406;19.484;2023-02-18T03:16:32;6.70;99.90
19952;DHT22;10137;49.406;19.484;2023-02-18T03:19:06;6.70;99.90
19952;DHT22;10137;49.406;19.484;2023-02-18T03:21:40;6.70;99.90
19952;DHT22;10137;49.406;19.484;2023-02-18T03:24:19;6.70;99.90
19952;DHT22;10137;49.406;19.484;2023-02-18T03:26:49;6.60;99.90
19952;DHT22;10137;49.406;19.484;2023-02-18T03:29:20;6.60;99.90
19952;DHT22;10137;49.406;19.484;2023-02-18T03:31:53;6.60;99.90
19952;DHT22;10137;49.406;19.484;2023-02-18T03:34:25;6.60;99.90
19952;DHT22;10137;49.406;19.484;2023-02-18T03:36:56;6.60;99.90
19952;DHT22;10137;49.406;19.484;2023-02-18T03:39:28;6.60;99.90
19952;DHT22;10137;49.406;19.484;2023-02-18T03:41:57;6.60;99.90
19952;DHT22;10137;49.406;19.484;2023-02-18T03:44:25;6.60;99.90
19952;DHT22;10137;49.406;19.484;2023-02-18T03:46:53;6.60;99.90
19952;DHT22;10137;49.406;19.484;2023-02-18T03:49:22;6.40;99.90
19952;DHT22;10137;49.406;19.484;2023-02-18T03:51:50;6.50;99.90
19952;DHT22;10137;49.406;19.484;2023-02-18T03:54:19;6.50;99.90
19952;DHT22;10137;49.406;19.484;2023-02-18T03:56:47;6.50;99.90
19952;DHT22;10137;49.406;19.484;2023-02-18T03:59:16;6.50;99.90
19952;DHT22;10137;49.406;19.484;2023-02-18T04:01:44;6.40;99.90
19952;DHT22;10137;49.406;19.484;2023-02-18T04:04:12;6.30;99.90
19952;DHT22;10137;49.406;19.484;2023-02-18T04:06:40;6.30;99.90
19952;DHT22;10137;49.406;19.484;2023-02-18T04:09:08;6.30;99.90
19952;DHT22;10137;49.406;19.484;2023-02-18T04:11:36;6.40;99.90
19952;DHT22;10137;49.406;19.484;2023-02-18T04:14:07;6.40;99.90
19952;DHT22;10137;49.406;19.484;2023-02-18T04:16:35;6.30;99.90
19952;DHT22;10137;49.406;19.484;2023-02-18T04:19:03;6.40;99.90
19952;DHT22;10137;49.406;19.484;2023-02-18T04:21:32;6.40;99.90
19952;DHT22;10137;49.406;19.484;2023-02-18T04:23:59;6.40;99.90
19952;DHT22;10137;49.406;19.484;2023-02-18T04:26:28;6.40;99.90
19952;DHT22;10137;49.406;19.484;2023-02-18T04:28:56;6.40;99.90
19952;DHT22;10137;49.406;19.484;2023-02-18T04:31:26;6.40;99.90
19952;DHT22;10137;49.406;19.484;2023-02-18T04:33:54;6.30;99.90
19952;DHT22;10137;49.406;19.484;2023-02-18T04:36:22;6.30;99.90
19952;DHT22;10137;49.406;19.484;2023-02-18T04:38:49;6.30;99.90
19952;DHT22;10137;49.406;19.484;2023-02-18T04:41:17;6.30;99.90
19952;DHT22;10137;49.406;19.484;2023-02-18T04:43:46;6.30;99.90
19952;DHT22;10137;49.406;19.484;2023-02-18T04:46:14;6.30;99.90
19952;DHT22;10137;49.406;19.484;2023-02-18T04:48:43;6.30;99.90
19952;DHT22;10137;49.406;19.484;2023-02-18T04:51:10;6.30;99.90
19952;DHT22;10137;49.406;19.484;2023-02-18T04:53:39;6.30;99.90
19952;DHT22;10137;49.406;19.484;2023-02-18T04:56:07;6.40;99.90
19952;DHT22;10137;49.406;19.484;2023-02-18T04:58:35;6.40;99.90
19952;DHT22;10137;49.406;19.484;2023-02-18T05:01:03;6.40;99.90
19952;DHT22;10137;49.406;19.484;2023-02-18T05:03:31;6.40;99.90
19952;DHT22;10137;49.406;19.484;2023-02-18T05:06:00;6.40;99.90
19952;DHT22;10137;49.406;19.484;2023-02-18T05:08:29;6.30;99.90
19952;DHT22;10137;49.406;19.484;2023-02-18T05:10:56;6.20;99.90
19952;DHT22;10137;49.406;19.484;2023-02-18T05:13:24;6.20;99.90
19952;DHT22;10137;49.406;19.484;2023-02-18T05:15:51;6.30;99.90
19952;DHT22;10137;49.406;19.484;2023-02-18T05:18:19;6.30;99.90
19952;DHT22;10137;49.406;19.484;2023-02-18T05:20:47;6.30;99.90
19952;DHT22;10137;49.406;19.484;2023-02-18T05:23:16;6.40;99.90
19952;DHT22;10137;49.406;19.484;2023-02-18T05:25:45;6.40;99.90
19952;DHT22;10137;49.406;19.484;2023-02-18T05:28:14;6.40;99.90
19952;DHT22;10137;49.406;19.484;2023-02-18T05:30:42;6.50;99.90
19952;DHT22;10137;49.406;19.484;2023-02-18T05:33:09;6.50;99.90
19952;DHT22;10137;49.406;19.484;2023-02-18T05:35:37;6.40;99.90
19952;DHT22;10137;49.406;19.484;2023-02-18T05:38:05;6.40;99.90
19952;DHT22;10137;49.406;19.484;2023-02-18T05:40:35;6.40;99.90
19952;DHT22;10137;49.406;19.484;2023-02-18T05:43:04;6.40;99.90
19952;DHT22;10137;49.406;19.484;2023-02-18T05:45:32;6.40;99.90
19952;DHT22;10137;49.406;19.484;2023-02-18T05:48:00;6.40;99.90
19952;DHT22;10137;49.406;19.484;2023-02-18T05:50:28;6.30;99.90
19952;DHT22;10137;49.406;19.484;2023-02-18T05:52:57;6.30;99.90
19952;DHT22;10137;49.406;19.484;2023-02-18T05:55:25;6.30;99.90
19952;DHT22;10137;49.406;19.484;2023-02-18T05:57:55;6.30;99.90
19952;DHT22;10137;49.406;19.484;2023-02-18T06:00:23;6.30;99.90
19952;DHT22;10137;49.406;19.484;2023-02-18T06:02:50;6.30;99.90
19952;DHT22;10137;49.406;19.484;2023-02-18T06:05:18;6.20;99.90
19952;DHT22;10137;49.406;19.484;2023-02-18T06:07:47;6.20;99.90
19952;DHT22;10137;49.406;19.484;2023-02-18T06:10:15;6.20;99.90
19952;DHT22;10137;49.406;19.484;2023-02-18T06:12:44;6.20;99.90
19952;DHT22;10137;49.406;19.484;2023-02-18T06:15:12;6.20;99.90
19952;DHT22;10137;49.406;19.484;2023-02-18T06:17:41;6.10;99.90
19952;DHT22;10137;49.406;19.484;2023-02-18T06:20:09;6.20;99.90
19952;DHT22;10137;49.406;19.484;2023-02-18T06:22:38;6.20;99.90
19952;DHT22;10137;49.406;19.484;2023-02-18T06:25:06;6.20;99.90
19952;DHT22;10137;49.406;19.484;2023-02-18T06:27:34;6.20;99.90
19952;DHT22;10137;49.406;19.484;2023-02-18T06:30:03;6.20;99.90
19952;DHT22;10137;49.406;19.484;2023-02-18T06:32:33;6.20;99.90
19952;DHT22;10137;49.406;19.484;2023-02-18T06:35:01;6.20;99.90
19952;DHT22;10137;49.406;19.484;2023-02-18T06:37:29;6.20;99.90
19952;DHT22;10137;49.406;19.484;2023-02-18T06:39:57;6.20;99.90
19952;DHT22;10137;49.406;19.484;2023-02-18T06:42:25;6.20;99.90
19952;DHT22;10137;49.406;19.484;2023-02-18T06:44:52;6.20;99.90
19952;DHT22;10137;49.406;19.484;2023-02-18T06:47:19;6.20;99.90
19952;DHT22;10137;49.406;19.484;2023-02-18T06:49:48;6.30;99.90
19952;DHT22;10137;49.406;19.484;2023-02-18T06:52:17;6.30;99.90
19952;DHT22;10137;49.406;19.484;2023-02-18T06:54:47;6.20;99.90
19952;DHT22;10137;49.406;19.484;2023-02-18T06:57:15;6.20;99.90
19952;DHT22;10137;49.406;19.484;2023-02-18T06:59:43;6.20;99.90
19952;DHT22;10137;49.406;19.484;2023-02-18T07:02:12;6.20;99.90
19952;DHT22;10137;49.406;19.484;2023-02-18T07:04:40;6.20;99.90
19952;DHT22;10137;49.406;19.484;2023-02-18T07:07:09;6.10;99.90
19952;DHT22;10137;49.406;19.484;2023-02-18T07:09:38;6.20;99.90
19952;DHT22;10137;49.406;19.484;2023-02-18T07:12:05;6.30;99.90
19952;DHT22;10137;49.406;19.484;2023-02-18T07:14:32;6.30;99.90
19952;DHT22;10137;49.406;19.484;2023-02-18T07:17:01;6.40;99.90
19952;DHT22;10137;49.406;19.484;2023-02-18T07:19:29;6.40;99.90
19952;DHT22;10137;49.406;19.484;2023-02-18T07:21:57;6.40;99.90
19952;DHT22;10137;49.406;19.484;2023-02-18T07:24:27;6.50;99.90
19952;DHT22;10137;49.406;19.484;2023-02-18T07:26:54;6.50;99.90
19952;DHT22;10137;49.406;19.484;2023-02-18T07:29:22;6.60;99.90
19952;DHT22;10137;49.406;19.484;2023-02-18T07:31:51;6.60;99.90
19952;DHT22;10137;49.406;19.484;2023-02-18T07:34:20;6.60;99.90
19952;DHT22;10137;49.406;19.484;2023-02-18T07:36:48;6.60;99.90
19952;DHT22;10137;49.406;19.484;2023-02-18T07:39:16;6.60;99.90
19952;DHT22;10137;49.406;19.484;2023-02-18T07:41:47;6.70;99.90
19952;DHT22;10137;49.406;19.484;2023-02-18T07:44:16;6.60;99.90
19952;DHT22;10137;49.406;19.484;2023-02-18T07:46:44;6.70;99.90
19952;DHT22;10137;49.406;19.484;2023-02-18T07:49:12;6.60;99.90
19952;DHT22;10137;49.406;19.484;2023-02-18T07:51:40;6.60;99.90
19952;DHT22;10137;49.406;19.484;2023-02-18T07:54:07;6.70;99.90
19952;DHT22;10137;49.406;19.484;2023-02-18T07:56:35;6.70;99.90
19952;DHT22;10137;49.406;19.484;2023-02-18T07:59:05;6.80;99.90
19952;DHT22;10137;49.406;19.484;2023-02-18T08:01:33;6.90;99.90
19952;DHT22;10137;49.406;19.484;2023-02-18T08:04:01;6.80;99.90
19952;DHT22;10137;49.406;19.484;2023-02-18T08:06:32;6.90;99.90
19952;DHT22;10137;49.406;19.484;2023-02-18T08:09:00;6.90;99.90
19952;DHT22;10137;49.406;19.484;2023-02-18T08:11:27;7.00;99.90
19952;DHT22;10137;49.406;19.484;2023-02-18T08:13:56;7.00;99.90
19952;DHT22;10137;49.406;19.484;2023-02-18T08:16:26;7.00;99.90
19952;DHT22;10137;49.406;19.484;2023-02-18T08:18:54;7.00;99.90
19952;DHT22;10137;49.406;19.484;2023-02-18T08:21:25;7.10;99.90
19952;DHT22;10137;49.406;19.484;2023-02-18T08:23:52;7.10;99.90
19952;DHT22;10137;49.406;19.484;2023-02-18T08:26:21;7.00;99.90
19952;DHT22;10137;49.406;19.484;2023-02-18T08:28:48;7.10;99.90
19952;DHT22;10137;49.406;19.484;2023-02-18T08:31:18;7.10;99.90
19952;DHT22;10137;49.406;19.484;2023-02-18T08:33:48;7.10;99.90
19952;DHT22;10137;49.406;19.484;2023-02-18T08:36:15;7.10;99.90
19952;DHT22;10137;49.406;19.484;2023-02-18T08:38:43;7.10;99.90
19952;DHT22;10137;49.406;19.484;2023-02-18T08:41:12;7.10;99.90
19952;DHT22;10137;49.406;19.484;2023-02-18T08:43:40;7.10;99.90
19952;DHT22;10137;49.406;19.484;2023-02-18T08:46:08;7.10;99.90
19952;DHT22;10137;49.406;19.484;2023-02-18T08:48:36;7.10;99.90
19952;DHT22;10137;49.406;19.484;2023-02-18T08:51:13;7.20;99.90
19952;DHT22;10137;49.406;19.484;2023-02-18T08:53:41;7.20;99.90
19952;DHT22;10137;49.406;19.484;2023-02-18T08:56:10;7.10;99.90
19952;DHT22;10137;49.406;19.484;2023-02-18T08:58:39;7.20;99.90
19952;DHT22;10137;49.406;19.484;2023-02-18T09:01:10;7.20;99.90
19952;DHT22;10137;49.406;19.484;2023-02-18T09:03:38;7.20;99.90
19952;DHT22;10137;49.406;19.484;2023-02-18T09:06:06;7.20;99.90
19952;DHT22;10137;49.406;19.484;2023-02-18T09:08:35;7.20;99.90
19952;DHT22;10137;49.406;19.484;2023-02-18T09:11:04;7.20;99.90
19952;DHT22;10137;49.406;19.484;2023-02-18T09:13:33;7.10;99.90
19952;DHT22;10137;49.406;19.484;2023-02-18T09:16:03;7.10;99.90
19952;DHT22;10137;49.406;19.484;2023-02-18T09:18:32;7.10;99.90
19952;DHT22;10137;49.406;19.484;2023-02-18T09:21:02;7.10;99.90
19952;DHT22;10137;49.406;19.484;2023-02-18T09:23:31;7.00;99.90
19952;DHT22;10137;49.406;19.484;2023-02-18T09:26:03;7.10;99.90
19952;DHT22;10137;49.406;19.484;2023-02-18T09:28:32;7.10;99.90
19952;DHT22;10137;49.406;19.484;2023-02-18T09:31:04;7.10;99.90
19952;DHT22;10137;49.406;19.484;2023-02-18T09:33:34;7.00;99.90
19952;DHT22;10137;49.406;19.484;2023-02-18T09:36:01;7.10;99.90
19952;DHT22;10137;49.406;19.484;2023-02-18T09:38:29;7.10;99.90
19952;DHT22;10137;49.406;19.484;2023-02-18T09:41:02;7.00;99.90
19952;DHT22;10137;49.406;19.484;2023-02-18T09:43:33;7.10;99.90
19952;DHT22;10137;49.406;19.484;2023-02-18T09:46:16;7.10;99.90
19952;DHT22;10137;49.406;19.484;2023-02-18T09:48:47;7.20;99.90
19952;DHT22;10137;49.406;19.484;2023-02-18T09:51:16;7.20;99.90
19952;DHT22;10137;49.406;19.484;2023-02-18T09:53:45;7.10;99.90
19952;DHT22;10137;49.406;19.484;2023-02-18T09:56:18;7.10;99.90
19952;DHT22;10137;49.406;19.484;2023-02-18T09:58:48;7.10;99.90
19952;DHT22;10137;49.406;19.484;2023-02-18T10:01:21;7.10;99.90
19952;DHT22;10137;49.406;19.484;2023-02-18T10:03:52;7.00;99.90
19952;DHT22;10137;49.406;19.484;2023-02-18T10:06:21;7.00;99.90
19952;DHT22;10137;49.406;19.484;2023-02-18T10:08:52;7.00;99.90
19952;DHT22;10137;49.406;19.484;2023-02-18T10:11:29;7.00;99.90
19952;DHT22;10137;49.406;19.484;2023-02-18T10:13:58;6.90;99.90
19952;DHT22;10137;49.406;19.484;2023-02-18T10:16:28;6.90;99.90
19952;DHT22;10137;49.406;19.484;2023-02-18T10:18:59;6.90;99.90
19952;DHT22;10137;49.406;19.484;2023-02-18T10:21:31;6.90;99.90
19952;DHT22;10137;49.406;19.484;2023-02-18T10:24:05;6.90;99.90
19952;DHT22;10137;49.406;19.484;2023-02-18T10:26:37;6.90;99.90
19952;DHT22;10137;49.406;19.484;2023-02-18T10:29:13;6.90;99.90
19952;DHT22;10137;49.406;19.484;2023-02-18T10:31:45;6.80;99.90
19952;DHT22;10137;49.406;19.484;2023-02-18T10:34:23;6.80;99.90
19952;DHT22;10137;49.406;19.484;2023-02-18T10:37:02;6.80;99.90
19952;DHT22;10137;49.406;19.484;2023-02-18T10:39:51;6.80;99.90
19952;DHT22;10137;49.406;19.484;2023-02-18T10:42:31;6.80;99.90
19952;DHT22;10137;49.406;19.484;2023-02-18T10:45:12;7.00;99.90
19952;DHT22;10137;49.406;19.484;2023-02-18T10:47:52;7.00;99.90
19952;DHT22;10137;49.406;19.484;2023-02-18T10:50:28;7.00;99.90
19952;DHT22;10137;49.406;19.484;2023-02-18T10:53:00;7.10;99.90
19952;DHT22;10137;49.406;19.484;2023-02-18T10:55:36;7.20;99.90
19952;DHT22;10137;49.406;19.484;2023-02-18T10:58:23;7.20;99.90
19952;DHT22;10137;49.406;19.484;2023-02-18T11:00:53;7.20;99.90
19952;DHT22;10137;49.406;19.484;2023-02-18T11:03:22;7.20;99.90
19952;DHT22;10137;49.406;19.484;2023-02-18T11:05:51;7.20;99.90
19952;DHT22;10137;49.406;19.484;2023-02-18T11:08:23;7.20;99.90
19952;DHT22;10137;49.406;19.484;2023-02-18T11:10:53;7.20;99.90
19952;DHT22;10137;49.406;19.484;2023-02-18T11:13:28;7.10;99.90
19952;DHT22;10137;49.406;19.484;2023-02-18T11:16:00;7.10;99.90
19952;DHT22;10137;49.406;19.484;2023-02-18T11:18:37;7.20;99.90
19952;DHT22;10137;49.406;19.484;2023-02-18T11:21:19;7.10;99.90
19952;DHT22;10137;49.406;19.484;2023-02-18T11:23:50;7.10;99.90
19952;DHT22;10137;49.406;19.484;2023-02-18T11:26:23;7.10;99.90
19952;DHT22;10137;49.406;19.484;2023-02-18T11:28:59;7.00;99.90
19952;DHT22;10137;49.406;19.484;2023-02-18T11:31:35;7.10;99.90
19952;DHT22;10137;49.406;19.484;2023-02-18T11:34:14;7.10;99.90
19952;DHT22;10137;49.406;19.484;2023-02-18T11:36:43;7.20;99.90
19952;DHT22;10137;49.406;19.484;2023-02-18T11:39:18;7.20;99.90
19952;DHT22;10137;49.406;19.484;2023-02-18T11:41:52;7.20;99.90
19952;DHT22;10137;49.406;19.484;2023-02-18T11:44:27;7.20;99.90
19952;DHT22;10137;49.406;19.484;2023-02-18T11:46:58;7.20;99.90
19952;DHT22;10137;49.406;19.484;2023-02-18T11:49:27;7.20;99.90
19952;DHT22;10137;49.406;19.484;2023-02-18T11:52:04;7.30;99.90
19952;DHT22;10137;49.406;19.484;2023-02-18T11:54:32;7.10;99.90
19952;DHT22;10137;49.406;19.484;2023-02-18T11:57:03;7.10;99.90
19952;DHT22;10137;49.406;19.484;2023-02-18T11:59:35;7.10;99.90
19952;DHT22;10137;49.406;19.484;2023-02-18T12:02:21;7.10;99.90
19952;DHT22;10137;49.406;19.484;2023-02-18T12:04:58;7.10;99.90
19952;DHT22;10137;49.406;19.484;2023-02-18T12:07:33;7.10;99.90
19952;DHT22;10137;49.406;19.484;2023-02-18T12:10:11;7.10;99.90
19952;DHT22;10137;49.406;19.484;2023-02-18T12:12:44;7.10;99.90
19952;DHT22;10137;49.406;19.484;2023-02-18T12:15:17;7.10;99.90
19952;DHT22;10137;49.406;19.484;2023-02-18T12:18:02;7.00;99.90
19952;DHT22;10137;49.406;19.484;2023-02-18T12:23:30;7.00;99.90
19952;DHT22;10137;49.406;19.484;2023-02-18T12:26:05;7.00;99.90
19952;DHT22;10137;49.406;19.484;2023-02-18T12:28:47;6.90;99.90
19952;DHT22;10137;49.406;19.484;2023-02-18T12:31:37;7.00;99.90
19952;DHT22;10137;49.406;19.484;2023-02-18T12:34:21;6.90;99.90
19952;DHT22;10137;49.406;19.484;2023-02-18T12:37:00;6.80;99.90
19952;DHT22;10137;49.406;19.484;2023-02-18T12:39:48;6.80;99.90
19952;DHT22;10137;49.406;19.484;2023-02-18T12:42:34;6.90;99.90
19952;DHT22;10137;49.406;19.484;2023-02-18T12:45:23;6.90;99.90
19952;DHT22;10137;49.406;19.484;2023-02-18T12:48:19;6.90;99.90
19952;DHT22;10137;49.406;19.484;2023-02-18T12:51:23;6.90;99.90
19952;DHT22;10137;49.406;19.484;2023-02-18T12:54:18;6.90;99.90
19952;DHT22;10137;49.406;19.484;2023-02-18T12:57:06;6.80;99.90
19952;DHT22;10137;49.406;19.484;2023-02-18T13:02:49;6.80;99.90
19952;DHT22;10137;49.406;19.484;2023-02-18T13:05:29;6.80;99.90
19952;DHT22;10137;49.406;19.484;2023-02-18T13:08:12;6.70;99.90
19952;DHT22;10137;49.406;19.484;2023-02-18T13:10:53;6.70;99.90
19952;DHT22;10137;49.406;19.484;2023-02-18T13:13:25;6.70;99.90
19952;DHT22;10137;49.406;19.484;2023-02-18T13:15:57;6.70;99.90
19952;DHT22;10137;49.406;19.484;2023-02-18T13:18:31;6.80;99.90
19952;DHT22;10137;49.406;19.484;2023-02-18T13:21:04;6.70;99.90
19952;DHT22;10137;49.406;19.484;2023-02-18T13:23:36;6.70;99.90
19952;DHT22;10137;49.406;19.484;2023-02-18T13:26:08;6.70;99.90
19952;DHT22;10137;49.406;19.484;2023-02-18T13:28:43;6.70;99.90
19952;DHT22;10137;49.406;19.484;2023-02-18T13:31:31;6.70;99.90
19952;DHT22;10137;49.406;19.484;2023-02-18T13:34:06;6.70;99.90
19952;DHT22;10137;49.406;19.484;2023-02-18T13:36:49;6.70;99.90
19952;DHT22;10137;49.406;19.484;2023-02-18T13:39:20;6.70;99.90
19952;DHT22;10137;49.406;19.484;2023-02-18T13:41:50;6.80;99.90
19952;DHT22;10137;49.406;19.484;2023-02-18T13:47:35;6.70;99.90
19952;DHT22;10137;49.406;19.484;2023-02-18T13:50:38;6.70;99.90
19952;DHT22;10137;49.406;19.484;2023-02-18T13:53:24;6.70;99.90
19952;DHT22;10137;49.406;19.484;2023-02-18T13:55:59;6.70;99.90
19952;DHT22;10137;49.406;19.484;2023-02-18T13:58:33;6.70;99.90
19952;DHT22;10137;49.406;19.484;2023-02-18T14:01:05;6.70;99.90
19952;DHT22;10137;49.406;19.484;2023-02-18T14:03:58;6.60;99.90
19952;DHT22;10137;49.406;19.484;2023-02-18T14:06:34;6.60;99.90
19952;DHT22;10137;49.406;19.484;2023-02-18T14:09:38;6.60;99.90
19952;DHT22;10137;49.406;19.484;2023-02-18T14:12:36;6.70;99.90
19952;DHT22;10137;49.406;19.484;2023-02-18T14:18:33;6.60;99.90
19952;DHT22;10137;49.406;19.484;2023-02-18T14:21:18;6.70;99.90
19952;DHT22;10137;49.406;19.484;2023-02-18T14:23:58;6.70;99.90
19952;DHT22;10137;49.406;19.484;2023-02-18T14:26:36;6.70;99.90
19952;DHT22;10137;49.406;19.484;2023-02-18T14:29:12;6.70;99.90
19952;DHT22;10137;49.406;19.484;2023-02-18T14:31:50;6.80;99.90
19952;DHT22;10137;49.406;19.484;2023-02-18T14:40:59;6.90;99.90
19952;DHT22;10137;49.406;19.484;2023-02-18T14:43:48;6.80;99.90
19952;DHT22;10137;49.406;19.484;2023-02-18T14:46:27;6.80;99.90
19952;DHT22;10137;49.406;19.484;2023-02-18T14:49:20;6.80;99.90
19952;DHT22;10137;49.406;19.484;2023-02-18T14:51:51;6.80;99.90
19952;DHT22;10137;49.406;19.484;2023-02-18T14:54:20;6.80;99.90
19952;DHT22;10137;49.406;19.484;2023-02-18T14:56:55;6.80;99.90
19952;DHT22;10137;49.406;19.484;2023-02-18T14:59:25;6.80;99.90
19952;DHT22;10137;49.406;19.484;2023-02-18T15:01:55;6.90;99.90
19952;DHT22;10137;49.406;19.484;2023-02-18T15:04:25;6.90;99.90
19952;DHT22;10137;49.406;19.484;2023-02-18T15:07:01;6.80;99.90
19952;DHT22;10137;49.406;19.484;2023-02-18T15:09:30;6.80;99.90
19952;DHT22;10137;49.406;19.484;2023-02-18T15:12:00;6.80;99.90
19952;DHT22;10137;49.406;19.484;2023-02-18T15:14:32;6.80;99.90
19952;DHT22;10137;49.406;19.484;2023-02-18T15:17:01;6.80;99.90
19952;DHT22;10137;49.406;19.484;2023-02-18T15:19:36;6.80;99.90
19952;DHT22;10137;49.406;19.484;2023-02-18T15:22:14;6.80;99.90
19952;DHT22;10137;49.406;19.484;2023-02-18T15:24:43;6.80;99.90
19952;DHT22;10137;49.406;19.484;2023-02-18T15:27:14;6.80;99.90
19952;DHT22;10137;49.406;19.484;2023-02-18T15:29:43;6.80;99.90
19952;DHT22;10137;49.406;19.484;2023-02-18T15:32:15;6.80;99.90
19952;DHT22;10137;49.406;19.484;2023-02-18T15:34:44;6.80;99.90
19952;DHT22;10137;49.406;19.484;2023-02-18T15:37:14;6.70;99.90
19952;DHT22;10137;49.406;19.484;2023-02-18T15:39:43;6.80;99.90
19952;DHT22;10137;49.406;19.484;2023-02-18T15:42:25;6.70;99.90
19952;DHT22;10137;49.406;19.484;2023-02-18T15:44:56;6.70;99.90
19952;DHT22;10137;49.406;19.484;2023-02-18T15:47:25;6.80;99.90
19952;DHT22;10137;49.406;19.484;2023-02-18T15:49:55;6.80;99.90
19952;DHT22;10137;49.406;19.484;2023-02-18T15:52:28;6.80;99.90
19952;DHT22;10137;49.406;19.484;2023-02-18T15:55:01;6.80;99.90
19952;DHT22;10137;49.406;19.484;2023-02-18T15:57:31;6.80;99.90
19952;DHT22;10137;49.406;19.484;2023-02-18T16:00:04;6.80;99.90
19952;DHT22;10137;49.406;19.484;2023-02-18T16:02:32;6.80;99.90
19952;DHT22;10137;49.406;19.484;2023-02-18T16:05:01;6.90;99.90
19952;DHT22;10137;49.406;19.484;2023-02-18T16:07:31;6.90;99.90
19952;DHT22;10137;49.406;19.484;2023-02-18T16:10:15;7.00;99.90
19952;DHT22;10137;49.406;19.484;2023-02-18T16:12:48;7.00;99.90
19952;DHT22;10137;49.406;19.484;2023-02-18T16:15:22;7.00;99.90
19952;DHT22;10137;49.406;19.484;2023-02-18T16:17:51;7.10;99.90
19952;DHT22;10137;49.406;19.484;2023-02-18T16:20:26;7.10;99.90
19952;DHT22;10137;49.406;19.484;2023-02-18T16:22:59;7.10;99.90
19952;DHT22;10137;49.406;19.484;2023-02-18T16:25:38;7.10;99.90